Decoded Metar for PAAK (ATKA in AK, USA) (IATA:AAK) | Meteo·Mobile Aviation Weather
aviador You're here:

PAAK Decoded Metar

ATKA in AK, USA
Report Time2019-05-19 22:56:00
UTC Time2019-05-19 23:39:36
Flight Rules vfr VFR
Wind290° at 15 kt
W.Decomp.*RWY 34: 7.9 kt HW 12.7 kt LCW
Visibility9999 m
Phenomena:N/A
Clouds:Broken 034 Hf
Expected CloudBase > 2,400 ft AGL from Temp-Dew spread
Ceiling3,400 ft
Temp06°C (ISA -9)
Dew Point00°C (66% RH)
AAT-1.4°C
QNH1015 hPa
Density Alt-1,001 ft
Elevation56 ft
Report Wrong Elevation
Raw Report
PAAK 192256Z AUTO 29015KT 10SM BKN034 06/00 A2998 RMK AO2 SLP152
T00560000=

Extra information for PAAK:More info

Metar Taf Metar & Taf Last 4 Metars F.Rules Stats Wind Profile Meteogram Temp Stats Airport Information Weather charts Add Link Nearby VenuesMetar ALERT Operation Metar Decoded Social comments

AIRNAV info for PAAK